createdAt,value
2018-07-07T00:00:46.448Z,0
2018-07-07T00:01:46.411Z,0
2018-07-07T00:02:46.387Z,0
2018-07-07T00:03:45.889Z,0
2018-07-07T00:04:46.152Z,0
2018-07-07T00:05:46.485Z,0
2018-07-07T00:06:46.136Z,0
2018-07-07T00:07:46.156Z,0
2018-07-07T00:08:46.387Z,0
2018-07-07T00:09:45.874Z,0
2018-07-07T00:10:45.930Z,0
2018-07-07T00:11:46.137Z,0
2018-07-07T00:12:46.394Z,0
2018-07-07T00:13:46.375Z,0
2018-07-07T00:14:46.163Z,0
2018-07-07T00:15:45.985Z,0
2018-07-07T00:16:45.888Z,0
2018-07-07T00:17:46.143Z,0
2018-07-07T00:18:45.898Z,0
2018-07-07T00:19:46.162Z,0
2018-07-07T00:20:46.430Z,0
2018-07-07T00:21:45.891Z,0
2018-07-07T00:22:46.421Z,0
2018-07-07T00:23:46.143Z,0
2018-07-07T00:24:46.383Z,0
2018-07-07T00:25:45.958Z,0
2018-07-07T00:26:46.415Z,0
2018-07-07T00:27:46.220Z,0
2018-07-07T00:28:45.892Z,0
2018-07-07T00:29:46.138Z,0
2018-07-07T00:30:46.504Z,0
2018-07-07T00:31:46.199Z,0
2018-07-07T00:32:46.170Z,0
2018-07-07T00:33:46.149Z,0
2018-07-07T00:34:46.151Z,0
2018-07-07T00:35:46.152Z,0
2018-07-07T00:36:46.218Z,0
2018-07-07T00:37:45.888Z,0
2018-07-07T00:38:45.912Z,0
2018-07-07T00:39:46.159Z,0
2018-07-07T00:40:46.181Z,0
2018-07-07T00:41:46.469Z,0
2018-07-07T00:42:48.608Z,0
2018-07-07T00:43:46.421Z,0
2018-07-07T00:44:46.399Z,0
2018-07-07T00:45:46.215Z,0
2018-07-07T00:46:46.409Z,0
2018-07-07T00:47:46.162Z,0
2018-07-07T00:48:46.415Z,0
2018-07-07T00:49:45.898Z,0
2018-07-07T00:50:46.261Z,0
2018-07-07T00:51:46.164Z,0
2018-07-07T00:52:48.055Z,0
2018-07-07T00:53:46.155Z,0
2018-07-07T00:54:45.641Z,0
2018-07-07T00:55:46.459Z,0
2018-07-07T00:56:46.397Z,0
2018-07-07T00:57:46.161Z,0
2018-07-07T00:58:46.151Z,0
2018-07-07T00:59:46.171Z,0
2018-07-07T01:00:46.217Z,0
2018-07-07T01:01:45.921Z,0
2018-07-07T01:02:46.203Z,0
2018-07-07T01:03:45.901Z,0
2018-07-07T01:04:46.447Z,0
2018-07-07T01:05:46.506Z,0
2018-07-07T01:06:46.184Z,0
2018-07-07T01:07:46.414Z,0
2018-07-07T01:08:46.173Z,0
2018-07-07T01:09:46.407Z,0
2018-07-07T01:10:46.189Z,0
2018-07-07T01:11:45.896Z,0
2018-07-07T01:12:46.404Z,0
2018-07-07T01:13:45.918Z,0
2018-07-07T01:14:46.209Z,0
2018-07-07T01:15:46.257Z,0
2018-07-07T01:16:45.938Z,0
2018-07-07T01:17:46.498Z,0
2018-07-07T01:18:46.196Z,0
2018-07-07T01:19:46.422Z,0
2018-07-07T01:20:46.165Z,0
2018-07-07T01:21:46.171Z,0
2018-07-07T01:22:46.169Z,0
2018-07-07T01:23:46.468Z,0
2018-07-07T01:24:46.165Z,0
2018-07-07T01:25:45.922Z,0
2018-07-07T01:26:46.190Z,0
2018-07-07T01:27:45.938Z,0
2018-07-07T01:28:46.182Z,0
2018-07-07T01:29:45.921Z,0
2018-07-07T01:30:45.707Z,0
2018-07-07T01:31:45.674Z,0
2018-07-07T01:32:46.459Z,0
2018-07-07T01:33:46.193Z,0
2018-07-07T01:34:45.676Z,0
2018-07-07T01:35:46.232Z,0
2018-07-07T01:36:46.173Z,0
2018-07-07T01:37:46.032Z,0
2018-07-07T01:38:46.194Z,0
2018-07-07T01:39:45.673Z,0
2018-07-07T01:40:46.248Z,0
2018-07-07T01:41:46.167Z,0
2018-07-07T01:42:45.917Z,0
2018-07-07T01:43:45.664Z,0
2018-07-07T01:44:45.926Z,0
2018-07-07T01:45:46.277Z,0
2018-07-07T01:46:46.189Z,0
2018-07-07T01:47:46.196Z,0
2018-07-07T01:48:45.736Z,0
2018-07-07T01:49:46.455Z,0
2018-07-07T01:50:45.973Z,0
2018-07-07T01:51:45.957Z,0
2018-07-07T01:52:45.939Z,0
2018-07-07T01:53:45.690Z,0
2018-07-07T01:54:46.186Z,0
2018-07-07T01:55:45.692Z,0
2018-07-07T01:56:46.453Z,0
2018-07-07T01:57:45.933Z,0
2018-07-07T01:58:45.953Z,0
2018-07-07T01:59:46.170Z,0
2018-07-07T02:00:46.403Z,0
2018-07-07T02:01:46.190Z,0
2018-07-07T02:02:46.445Z,0
2018-07-07T02:03:46.204Z,0
2018-07-07T02:04:46.194Z,0
2018-07-07T02:05:46.267Z,0
2018-07-07T02:06:45.663Z,0
2018-07-07T02:07:46.420Z,0
2018-07-07T02:08:46.182Z,0
2018-07-07T02:09:45.923Z,0
2018-07-07T02:10:45.924Z,0
2018-07-07T02:11:45.674Z,0
2018-07-07T02:12:46.439Z,0
2018-07-07T02:13:45.923Z,0
2018-07-07T02:14:46.173Z,0
2018-07-07T02:15:46.181Z,0
2018-07-07T02:16:45.917Z,0
2018-07-07T02:17:46.178Z,0
2018-07-07T02:18:45.736Z,0
2018-07-07T02:19:46.181Z,0
2018-07-07T02:20:46.226Z,0
2018-07-07T02:21:45.921Z,0
2018-07-07T02:22:46.180Z,0
2018-07-07T02:23:46.177Z,0
2018-07-07T02:24:46.182Z,0
2018-07-07T02:25:45.656Z,0
2018-07-07T02:26:46.457Z,0
2018-07-07T02:27:46.183Z,0
2018-07-07T02:28:46.186Z,0
2018-07-07T02:29:45.931Z,0
2018-07-07T02:30:46.496Z,0
2018-07-07T02:31:45.969Z,0
2018-07-07T02:32:46.413Z,0
2018-07-07T02:33:46.415Z,0
2018-07-07T02:34:45.678Z,0
2018-07-07T02:35:46.253Z,0
2018-07-07T02:36:46.412Z,0
2018-07-07T02:37:46.157Z,0
2018-07-07T02:38:45.933Z,0
2018-07-07T02:39:46.179Z,0
2018-07-07T02:40:46.416Z,0
2018-07-07T02:41:45.911Z,0
2018-07-07T02:42:46.202Z,0
2018-07-07T02:43:45.712Z,0
2018-07-07T02:44:45.687Z,0
2018-07-07T02:45:46.504Z,0
2018-07-07T02:46:45.924Z,0
2018-07-07T02:47:45.910Z,0
2018-07-07T02:48:46.446Z,0
2018-07-07T02:49:46.418Z,0
2018-07-07T02:50:46.471Z,0
2018-07-07T02:51:46.176Z,0
2018-07-07T02:52:46.167Z,0
2018-07-07T02:53:46.179Z,0
2018-07-07T02:54:46.423Z,0
2018-07-07T02:55:46.235Z,0
2018-07-07T02:56:46.258Z,0
2018-07-07T02:57:46.199Z,0
2018-07-07T02:58:46.175Z,0
2018-07-07T02:59:46.229Z,0
2018-07-07T03:00:46.282Z,0
2018-07-07T03:01:46.157Z,0
2018-07-07T03:02:46.200Z,0
2018-07-07T03:03:46.164Z,0
2018-07-07T03:04:45.914Z,0
2018-07-07T03:05:46.227Z,0
2018-07-07T03:06:45.904Z,0
2018-07-07T03:07:45.669Z,0
2018-07-07T03:08:45.698Z,0
2018-07-07T03:09:45.906Z,0
2018-07-07T03:10:46.489Z,0
2018-07-07T03:11:46.223Z,0
2018-07-07T03:12:46.168Z,0
2018-07-07T03:13:46.157Z,0
2018-07-07T03:14:46.167Z,0
2018-07-07T03:15:46.424Z,0
2018-07-07T03:16:46.152Z,0
2018-07-07T03:17:46.156Z,0
2018-07-07T03:18:46.161Z,0
2018-07-07T03:19:45.911Z,0
2018-07-07T03:20:46.458Z,0
2018-07-07T03:21:46.158Z,5
2018-07-07T03:22:46.173Z,5
2018-07-07T03:23:45.909Z,5
2018-07-07T03:24:46.190Z,5
2018-07-07T03:25:46.174Z,5
2018-07-07T03:26:46.165Z,5
2018-07-07T03:27:46.403Z,5
2018-07-07T03:28:46.411Z,5
2018-07-07T03:29:46.156Z,5
2018-07-07T03:30:46.500Z,10
2018-07-07T03:31:46.448Z,10
2018-07-07T03:32:45.903Z,10
2018-07-07T03:33:45.927Z,10
2018-07-07T03:34:45.912Z,10
2018-07-07T03:35:46.166Z,10
2018-07-07T03:36:45.912Z,15
2018-07-07T03:37:46.411Z,15
2018-07-07T03:38:46.160Z,15
2018-07-07T03:39:46.172Z,15
2018-07-07T03:40:46.183Z,20
2018-07-07T03:41:45.912Z,20
2018-07-07T03:42:45.920Z,20
2018-07-07T03:43:46.416Z,25
2018-07-07T03:44:45.899Z,25
2018-07-07T03:45:45.693Z,25
2018-07-07T03:46:46.172Z,25
2018-07-07T03:47:45.911Z,30
2018-07-07T03:48:46.402Z,30
2018-07-07T03:49:46.163Z,30
2018-07-07T03:50:46.262Z,30
2018-07-07T03:51:46.153Z,30
2018-07-07T03:52:45.905Z,30
2018-07-07T03:53:45.415Z,35
2018-07-07T03:54:45.905Z,35
2018-07-07T03:55:45.946Z,40
2018-07-07T03:56:46.405Z,40
2018-07-07T03:57:46.166Z,45
2018-07-07T03:58:45.713Z,50
2018-07-07T03:59:46.165Z,65
2018-07-07T04:00:46.244Z,70
2018-07-07T04:01:46.448Z,75
2018-07-07T04:02:46.154Z,75
2018-07-07T04:03:46.456Z,75
2018-07-07T04:04:45.909Z,80
2018-07-07T04:05:46.210Z,80
2018-07-07T04:06:46.457Z,80
2018-07-07T04:07:46.457Z,85
2018-07-07T04:08:45.916Z,90
2018-07-07T04:09:46.161Z,95
2018-07-07T04:10:45.952Z,95
2018-07-07T04:11:46.210Z,100
2018-07-07T04:12:45.922Z,105
2018-07-07T04:13:46.188Z,115
2018-07-07T04:14:45.916Z,115
2018-07-07T04:15:46.170Z,120
2018-07-07T04:16:45.666Z,130
2018-07-07T04:17:45.919Z,130
2018-07-07T04:18:46.174Z,140
2018-07-07T04:19:46.156Z,145
2018-07-07T04:20:45.679Z,145
2018-07-07T04:21:45.683Z,150
2018-07-07T04:22:46.193Z,155
2018-07-07T04:23:46.191Z,155
2018-07-07T04:24:46.192Z,155
2018-07-07T04:25:46.476Z,155
2018-07-07T04:26:45.702Z,165
2018-07-07T04:27:46.466Z,130
2018-07-07T04:28:46.251Z,125
2018-07-07T04:29:45.690Z,175
2018-07-07T04:30:46.209Z,145
2018-07-07T04:31:45.945Z,95
2018-07-07T04:32:46.193Z,95
2018-07-07T04:33:45.947Z,90
2018-07-07T04:34:45.964Z,95
2018-07-07T04:35:46.281Z,105
2018-07-07T04:36:45.703Z,105
2018-07-07T04:37:45.990Z,155
2018-07-07T04:38:45.997Z,200
2018-07-07T04:39:46.461Z,180
2018-07-07T04:40:45.780Z,150
2018-07-07T04:41:45.960Z,110
2018-07-07T04:42:46.217Z,115
2018-07-07T04:43:46.304Z,110
2018-07-07T04:44:45.961Z,140
2018-07-07T04:45:45.780Z,120
2018-07-07T04:46:46.484Z,115
2018-07-07T04:47:46.221Z,135
2018-07-07T04:48:45.967Z,170
2018-07-07T04:49:46.487Z,160
2018-07-07T04:50:46.269Z,180
2018-07-07T04:51:46.224Z,220
2018-07-07T04:52:45.725Z,205
2018-07-07T04:53:46.253Z,200
2018-07-07T04:54:46.000Z,220
2018-07-07T04:55:46.936Z,155
2018-07-07T04:56:46.271Z,135
2018-07-07T04:57:45.994Z,175
2018-07-07T04:58:45.797Z,155
2018-07-07T04:59:46.512Z,230
2018-07-07T05:00:46.316Z,200
2018-07-07T05:01:46.268Z,185
2018-07-07T05:02:46.337Z,170
2018-07-07T05:03:46.291Z,195
2018-07-07T05:04:46.205Z,170
2018-07-07T05:05:46.546Z,275
2018-07-07T05:06:46.303Z,280
2018-07-07T05:07:46.514Z,295
2018-07-07T05:08:46.057Z,285
2018-07-07T05:09:46.575Z,310
2018-07-07T05:10:45.839Z,285
2018-07-07T05:11:46.045Z,270
2018-07-07T05:12:46.318Z,205
2018-07-07T05:13:46.335Z,175
2018-07-07T05:14:46.298Z,175
2018-07-07T05:15:46.441Z,180
2018-07-07T05:16:46.046Z,195
2018-07-07T05:17:46.048Z,190
2018-07-07T05:18:46.313Z,190
2018-07-07T05:19:46.064Z,260
2018-07-07T05:20:45.841Z,260
2018-07-07T05:21:46.569Z,310
2018-07-07T05:22:46.354Z,280
2018-07-07T05:23:46.118Z,240
2018-07-07T05:24:46.322Z,205
2018-07-07T05:25:46.090Z,245
2018-07-07T05:26:46.573Z,190
2018-07-07T05:27:46.624Z,195
2018-07-07T05:28:46.329Z,190
2018-07-07T05:29:46.331Z,260
2018-07-07T05:30:46.134Z,245
2018-07-07T05:31:46.447Z,255
2018-07-07T05:32:46.351Z,340
2018-07-07T05:33:45.883Z,315
2018-07-07T05:34:46.370Z,275
2018-07-07T05:35:46.394Z,360
2018-07-07T05:36:46.117Z,355
2018-07-07T05:37:46.637Z,370
2018-07-07T05:38:46.384Z,350
2018-07-07T05:39:46.607Z,355
2018-07-07T05:40:46.611Z,265
2018-07-07T05:41:46.148Z,220
2018-07-07T05:42:46.408Z,365
2018-07-07T05:43:46.469Z,380
2018-07-07T05:44:46.413Z,335
2018-07-07T05:45:46.467Z,325
2018-07-07T05:46:46.407Z,240
2018-07-07T05:47:45.910Z,235
2018-07-07T05:48:46.495Z,195
2018-07-07T05:49:45.939Z,200
2018-07-07T05:50:46.000Z,205
2018-07-07T05:51:46.742Z,315
2018-07-07T05:52:46.456Z,370
2018-07-07T05:53:46.446Z,380
2018-07-07T05:54:46.293Z,325
2018-07-07T05:55:46.499Z,300
2018-07-07T05:56:46.207Z,250
2018-07-07T05:57:46.485Z,360
2018-07-07T05:58:46.484Z,360
2018-07-07T05:59:46.752Z,385
2018-07-07T06:00:46.508Z,395
2018-07-07T06:01:46.231Z,385
2018-07-07T06:02:46.488Z,375
2018-07-07T06:03:46.011Z,380
2018-07-07T06:04:46.267Z,370
2018-07-07T06:05:46.523Z,390
2018-07-07T06:06:46.762Z,390
2018-07-07T06:07:46.030Z,360
2018-07-07T06:08:46.345Z,360
2018-07-07T06:09:46.885Z,335
2018-07-07T06:10:46.552Z,335
2018-07-07T06:11:46.288Z,330
2018-07-07T06:12:46.803Z,285
2018-07-07T06:13:46.864Z,325
2018-07-07T06:24:11.870Z,345
2018-07-07T06:25:12.124Z,245
2018-07-07T06:26:11.870Z,240
2018-07-07T06:27:11.884Z,245
2018-07-07T06:28:11.666Z,235
2018-07-07T06:29:11.715Z,225
2018-07-07T06:30:11.646Z,215
2018-07-07T06:31:12.394Z,200
2018-07-07T06:32:12.401Z,195
2018-07-07T06:33:11.917Z,190
2018-07-07T06:34:11.896Z,195
2018-07-07T06:35:12.242Z,205
2018-07-07T06:36:12.157Z,220
2018-07-07T06:37:12.190Z,225
2018-07-07T06:38:11.669Z,230
2018-07-07T06:39:12.179Z,230
2018-07-07T06:40:11.444Z,235
2018-07-07T06:41:12.416Z,250
2018-07-07T06:42:11.688Z,330
2018-07-07T06:43:11.921Z,350
2018-07-07T06:44:12.444Z,335
2018-07-07T06:45:12.235Z,270
2018-07-07T06:46:11.741Z,255
2018-07-07T06:47:12.273Z,330
2018-07-07T06:48:12.194Z,320
2018-07-07T06:49:11.972Z,290
2018-07-07T06:50:11.724Z,280
2018-07-07T06:51:11.945Z,340
2018-07-07T06:52:11.469Z,315
2018-07-07T06:53:12.000Z,425
2018-07-07T06:54:12.239Z,395
2018-07-07T06:55:11.528Z,365
2018-07-07T06:56:12.010Z,290
2018-07-07T06:57:11.762Z,305
2018-07-07T06:58:11.540Z,345
2018-07-07T06:59:12.162Z,390
2018-07-07T07:00:12.762Z,385
2018-07-07T07:01:12.333Z,355
2018-07-07T07:02:12.341Z,305
2018-07-07T07:03:12.358Z,360
2018-07-07T07:04:11.783Z,380
2018-07-07T07:05:12.310Z,340
2018-07-07T07:06:12.301Z,380
2018-07-07T07:07:12.067Z,410
2018-07-07T07:08:12.312Z,395
2018-07-07T07:09:12.088Z,295
2018-07-07T07:10:12.097Z,325
2018-07-07T07:11:12.083Z,435
2018-07-07T07:12:12.524Z,440
2018-07-07T07:13:12.361Z,450
2018-07-07T07:14:12.414Z,435
2018-07-07T07:15:12.389Z,425
2018-07-07T07:16:12.153Z,405
2018-07-07T07:17:11.891Z,345
2018-07-07T07:18:11.857Z,365
2018-07-07T07:19:11.893Z,425
2018-07-07T07:20:11.871Z,410
2018-07-07T07:21:12.631Z,405
2018-07-07T07:22:11.957Z,410
2018-07-07T07:23:11.950Z,405
2018-07-07T07:24:11.939Z,425
2018-07-07T07:25:12.405Z,425
2018-07-07T07:26:12.535Z,425
2018-07-07T07:27:11.914Z,435
2018-07-07T07:28:12.447Z,435
2018-07-07T07:29:12.012Z,430
2018-07-07T07:30:12.710Z,425
2018-07-07T07:31:12.720Z,420
2018-07-07T07:32:11.706Z,425
2018-07-07T07:33:12.852Z,425
2018-07-07T07:34:12.099Z,425
2018-07-07T07:35:12.493Z,420
2018-07-07T07:36:12.290Z,435
2018-07-07T07:37:11.774Z,440
2018-07-07T07:38:12.252Z,435
2018-07-07T07:39:12.799Z,430
2018-07-07T07:40:12.019Z,405
2018-07-07T07:41:12.291Z,420
2018-07-07T07:42:12.284Z,425
2018-07-07T07:43:12.595Z,435
2018-07-07T07:44:11.842Z,440
2018-07-07T07:45:12.568Z,430
2018-07-07T07:46:12.339Z,430
2018-07-07T07:47:12.095Z,420
2018-07-07T07:48:12.328Z,415
2018-07-07T07:49:12.862Z,425
2018-07-07T07:50:12.091Z,410
2018-07-07T07:51:12.601Z,415
2018-07-07T07:52:12.649Z,425
2018-07-07T07:53:12.126Z,415
2018-07-07T07:54:12.646Z,415
2018-07-07T07:55:12.382Z,420
2018-07-07T07:56:12.425Z,425
2018-07-07T07:57:12.419Z,420
2018-07-07T07:58:12.654Z,420
2018-07-07T07:59:12.585Z,420
2018-07-07T08:00:12.687Z,415
2018-07-07T08:01:12.437Z,420
2018-07-07T08:02:12.723Z,425
2018-07-07T08:03:12.447Z,425
2018-07-07T08:04:12.483Z,420
2018-07-07T08:05:12.201Z,410
2018-07-07T08:06:12.483Z,410
2018-07-07T08:07:13.001Z,410
2018-07-07T08:08:12.751Z,410
2018-07-07T08:09:12.749Z,405
2018-07-07T08:10:13.024Z,405
2018-07-07T08:11:12.773Z,400
2018-07-07T08:12:12.775Z,395
2018-07-07T08:13:12.280Z,395
2018-07-07T08:14:13.065Z,410
2018-07-07T08:15:12.036Z,405
2018-07-07T08:16:12.590Z,395
2018-07-07T08:17:12.809Z,390
2018-07-07T08:18:12.562Z,395
2018-07-07T08:19:12.588Z,400
2018-07-07T08:20:12.855Z,405
2018-07-07T08:21:12.621Z,410
2018-07-07T08:22:12.604Z,415
2018-07-07T08:23:12.898Z,415
2018-07-07T08:24:12.887Z,415
2018-07-07T08:25:12.397Z,415
2018-07-07T08:26:12.392Z,410
2018-07-07T08:27:12.960Z,410
2018-07-07T08:28:13.257Z,410
2018-07-07T08:29:12.837Z,410
2018-07-07T08:30:12.766Z,405
2018-07-07T08:31:13.057Z,405
2018-07-07T08:32:12.735Z,415
2018-07-07T08:33:12.538Z,420
2018-07-07T08:34:12.453Z,415
2018-07-07T08:35:12.706Z,400
2018-07-07T08:36:12.979Z,390
2018-07-07T08:37:12.722Z,405
2018-07-07T08:38:12.469Z,410
2018-07-07T08:39:12.736Z,395
2018-07-07T08:40:12.755Z,385
2018-07-07T08:41:12.816Z,405
2018-07-07T08:42:13.011Z,405
2018-07-07T08:43:12.771Z,405
2018-07-07T08:44:12.574Z,400
2018-07-07T08:45:13.038Z,410
2018-07-07T08:46:12.538Z,410
2018-07-07T08:47:13.075Z,410
2018-07-07T08:48:12.811Z,400
2018-07-07T08:49:13.121Z,375
2018-07-07T08:50:13.335Z,395
2018-07-07T08:51:12.836Z,405
2018-07-07T08:52:12.847Z,415
2018-07-07T08:53:12.846Z,395
2018-07-07T08:54:13.104Z,410
2018-07-07T08:55:13.142Z,410
2018-07-07T08:56:13.145Z,420
2018-07-07T08:57:13.377Z,410
2018-07-07T08:58:12.865Z,395
2018-07-07T08:59:12.377Z,365
2018-07-07T09:00:12.884Z,365
2018-07-07T09:01:13.421Z,360
2018-07-07T09:02:13.640Z,365
2018-07-07T09:03:13.160Z,325
2018-07-07T09:04:12.943Z,375
2018-07-07T09:05:13.002Z,375
2018-07-07T09:06:13.220Z,385
2018-07-07T09:07:13.212Z,385
2018-07-07T09:08:12.957Z,395
2018-07-07T09:09:12.955Z,390
2018-07-07T09:10:13.481Z,390
2018-07-07T09:11:12.970Z,390
2018-07-07T09:12:13.215Z,390
2018-07-07T09:13:13.245Z,385
2018-07-07T09:14:13.334Z,390
2018-07-07T09:15:13.263Z,395
2018-07-07T09:16:12.759Z,410
2018-07-07T09:17:13.258Z,410
2018-07-07T09:18:13.534Z,410
2018-07-07T09:19:12.768Z,415
2018-07-07T09:20:13.319Z,420
2018-07-07T09:21:13.530Z,420
2018-07-07T09:22:13.578Z,435
2018-07-07T09:23:12.804Z,435
2018-07-07T09:24:13.628Z,410
2018-07-07T09:25:13.330Z,430
2018-07-07T09:26:13.090Z,430
2018-07-07T09:27:13.078Z,450
2018-07-07T09:28:12.830Z,470
2018-07-07T09:29:13.374Z,465
2018-07-07T09:30:13.101Z,465
2018-07-07T09:31:13.420Z,420
2018-07-07T09:32:12.866Z,390
2018-07-07T09:33:13.100Z,430
2018-07-07T09:34:13.381Z,420
2018-07-07T09:35:13.377Z,400
2018-07-07T09:36:13.152Z,330
2018-07-07T09:37:13.455Z,325
2018-07-07T09:38:13.407Z,330
2018-07-07T09:39:12.909Z,345
2018-07-07T09:40:13.159Z,335
2018-07-07T09:41:13.673Z,335
2018-07-07T09:42:13.424Z,340
2018-07-07T09:43:13.440Z,335
2018-07-07T09:44:14.636Z,340
2018-07-07T09:45:13.190Z,335
2018-07-07T09:46:13.701Z,335
2018-07-07T09:47:12.968Z,340
2018-07-07T09:48:13.715Z,340
2018-07-07T09:49:13.220Z,355
2018-07-07T09:50:12.955Z,370
2018-07-07T09:51:13.231Z,455
2018-07-07T09:52:13.469Z,475
2018-07-07T09:53:13.506Z,475
2018-07-07T09:54:12.998Z,475
2018-07-07T09:55:13.518Z,470
2018-07-07T09:56:13.569Z,465
2018-07-07T09:57:13.759Z,450
2018-07-07T09:58:13.499Z,440
2018-07-07T09:59:13.390Z,340
2018-07-07T10:00:13.529Z,350
2018-07-07T10:01:13.787Z,325
2018-07-07T10:02:13.308Z,385
2018-07-07T10:03:13.796Z,305
2018-07-07T10:04:13.794Z,300
2018-07-07T10:05:13.820Z,295
2018-07-07T10:06:13.577Z,290
2018-07-07T10:07:13.309Z,280
2018-07-07T10:08:13.586Z,275
2018-07-07T10:09:13.325Z,265
2018-07-07T10:10:13.323Z,260
2018-07-07T10:11:13.844Z,245
2018-07-07T10:12:13.342Z,240
2018-07-07T10:13:13.342Z,235
2018-07-07T10:14:13.619Z,245
2018-07-07T10:15:13.607Z,265
2018-07-07T10:16:13.609Z,365
2018-07-07T10:17:13.637Z,375
2018-07-07T10:18:13.611Z,390
2018-07-07T10:19:13.614Z,395
2018-07-07T10:20:13.637Z,400
2018-07-07T10:21:13.394Z,410
2018-07-07T10:22:13.398Z,425
2018-07-07T10:23:13.650Z,435
2018-07-07T10:54:44.988Z,330
2018-07-07T10:55:45.649Z,330
2018-07-07T10:56:45.006Z,330
2018-07-07T10:57:45.242Z,335
2018-07-07T10:58:45.325Z,340
2018-07-07T10:59:44.991Z,350
2018-07-07T11:00:44.991Z,365
2018-07-07T11:01:45.261Z,370
2018-07-07T11:02:45.463Z,370
2018-07-07T11:03:45.261Z,375
2018-07-07T11:04:45.271Z,375
2018-07-07T11:05:44.850Z,365
2018-07-07T11:06:45.015Z,360
2018-07-07T11:07:45.288Z,370
2018-07-07T11:08:45.527Z,375
2018-07-07T11:09:45.045Z,375
2018-07-07T11:10:45.361Z,380
2018-07-07T11:11:45.789Z,370
2018-07-07T11:12:45.311Z,365
2018-07-07T11:13:44.818Z,325
2018-07-07T11:14:45.337Z,305
2018-07-07T11:15:45.398Z,310
2018-07-07T11:16:45.575Z,305
2018-07-07T11:17:45.605Z,290
2018-07-07T11:18:45.596Z,345
2018-07-07T11:19:45.075Z,325
2018-07-07T11:20:45.380Z,280
2018-07-07T11:21:45.395Z,250
2018-07-07T11:22:45.107Z,235
2018-07-07T11:23:45.109Z,230
2018-07-07T11:24:45.107Z,235
2018-07-07T11:25:44.921Z,245
2018-07-07T11:26:45.358Z,260
2018-07-07T11:27:45.373Z,265
2018-07-07T11:28:45.142Z,310
2018-07-07T11:29:45.207Z,265
2018-07-07T11:30:45.406Z,290
2018-07-07T11:31:45.394Z,260
2018-07-07T11:32:44.906Z,270
2018-07-07T11:33:44.911Z,275
2018-07-07T11:34:45.413Z,265
2018-07-07T11:35:45.698Z,280
2018-07-07T11:36:47.416Z,285
2018-07-07T11:37:44.689Z,320
2018-07-07T11:38:45.184Z,360
2018-07-07T11:39:46.533Z,380
2018-07-07T11:40:45.035Z,375
2018-07-07T11:41:45.192Z,335
2018-07-07T11:42:45.466Z,375
2018-07-07T11:43:45.205Z,370
2018-07-07T11:44:45.472Z,370
2018-07-07T11:45:45.485Z,315
2018-07-07T11:46:45.478Z,320
2018-07-07T11:47:45.235Z,385
2018-07-07T11:48:45.504Z,390
2018-07-07T11:49:45.749Z,395
2018-07-07T11:50:45.768Z,395
2018-07-07T11:51:45.500Z,380
2018-07-07T11:52:45.052Z,370
2018-07-07T11:53:45.023Z,365
2018-07-07T11:54:45.256Z,375
2018-07-07T11:55:45.613Z,380
2018-07-07T11:56:45.800Z,375
2018-07-07T11:57:45.274Z,370
2018-07-07T11:58:45.297Z,360
2018-07-07T11:59:45.291Z,350
2018-07-07T12:00:45.080Z,360
2018-07-07T12:01:45.574Z,365
2018-07-07T12:02:45.328Z,375
2018-07-07T12:03:44.819Z,385
2018-07-07T12:04:45.850Z,385
2018-07-07T12:05:45.693Z,385
2018-07-07T12:06:45.332Z,385
2018-07-07T12:07:45.855Z,390
2018-07-07T12:08:45.599Z,385
2018-07-07T12:09:45.759Z,370
2018-07-07T12:10:45.130Z,350
2018-07-07T12:11:45.695Z,335
2018-07-07T12:12:45.873Z,330
2018-07-07T12:13:45.905Z,325
2018-07-07T12:14:45.932Z,320
2018-07-07T12:15:45.451Z,315
2018-07-07T12:16:46.154Z,305
2018-07-07T12:17:45.659Z,295
2018-07-07T12:18:45.435Z,285
2018-07-07T12:19:44.986Z,255
2018-07-07T12:20:45.774Z,265
2018-07-07T12:21:45.160Z,260
2018-07-07T12:22:45.149Z,210
2018-07-07T12:23:45.423Z,210
2018-07-07T12:24:46.101Z,215
2018-07-07T12:25:44.930Z,235
2018-07-07T12:26:45.685Z,235
2018-07-07T12:27:45.958Z,230
2018-07-07T12:28:45.446Z,230
2018-07-07T12:29:45.232Z,230
2018-07-07T12:30:45.558Z,235
2018-07-07T12:31:45.195Z,235
2018-07-07T12:32:45.718Z,240
2018-07-07T12:33:46.012Z,250
2018-07-07T12:34:46.018Z,260
2018-07-07T12:35:45.765Z,270
2018-07-07T12:36:45.328Z,280
2018-07-07T12:37:45.751Z,285
2018-07-07T12:38:45.505Z,290
2018-07-07T12:39:46.549Z,290
2018-07-07T12:40:46.479Z,290
2018-07-07T12:41:45.275Z,300
2018-07-07T12:42:45.517Z,310
2018-07-07T12:43:45.993Z,335
2018-07-07T12:44:46.058Z,330
2018-07-07T12:45:45.891Z,335
2018-07-07T12:46:45.784Z,320
2018-07-07T12:47:45.051Z,335
2018-07-07T12:48:45.308Z,360
2018-07-07T12:49:45.313Z,365
2018-07-07T12:50:46.080Z,370
2018-07-07T12:51:45.552Z,360
2018-07-07T12:52:46.078Z,345
2018-07-07T12:53:45.576Z,365
2018-07-07T12:54:45.825Z,340
2018-07-07T12:55:46.125Z,305
2018-07-07T12:56:45.859Z,290
2018-07-07T12:57:45.840Z,280
2018-07-07T12:58:45.605Z,270
2018-07-07T12:59:46.127Z,260
2018-07-07T13:00:46.207Z,255
2018-07-07T13:01:45.614Z,245
2018-07-07T13:02:45.936Z,245
2018-07-07T13:03:45.372Z,240
2018-07-07T13:04:45.366Z,235
2018-07-07T13:05:45.901Z,230
2018-07-07T13:06:45.882Z,230
2018-07-07T13:07:45.647Z,230
2018-07-07T13:08:46.169Z,230
2018-07-07T13:09:45.902Z,230
2018-07-07T13:10:46.077Z,230
2018-07-07T13:11:45.914Z,235
2018-07-07T13:12:45.911Z,245
2018-07-07T13:13:45.965Z,245
2018-07-07T13:14:45.950Z,280
2018-07-07T13:15:46.006Z,290
2018-07-07T13:16:45.683Z,285
2018-07-07T13:17:45.468Z,280
2018-07-07T13:18:45.697Z,280
2018-07-07T13:19:45.964Z,280
2018-07-07T13:20:46.531Z,280
2018-07-07T13:21:45.718Z,290
2018-07-07T13:22:46.016Z,290
2018-07-07T13:23:45.488Z,290
2018-07-07T13:24:45.731Z,285
2018-07-07T13:25:46.321Z,285
2018-07-07T13:26:46.719Z,250
2018-07-07T13:27:45.757Z,260
2018-07-07T13:28:46.257Z,270
2018-07-07T13:29:46.039Z,270
2018-07-07T13:30:46.278Z,275
2018-07-07T13:31:46.022Z,270
2018-07-07T13:32:46.020Z,275
2018-07-07T13:33:45.795Z,275
2018-07-07T13:34:45.791Z,265
2018-07-07T13:35:46.087Z,275
2018-07-07T13:36:45.887Z,280
2018-07-07T13:37:45.794Z,255
2018-07-07T13:38:46.546Z,255
2018-07-07T13:39:46.311Z,255
2018-07-07T13:40:45.908Z,295
2018-07-07T13:41:45.586Z,300
2018-07-07T13:42:46.080Z,290
2018-07-07T13:43:46.382Z,285
2018-07-07T13:44:45.835Z,275
2018-07-07T13:45:45.919Z,240
2018-07-07T13:46:45.855Z,270
2018-07-07T13:47:46.089Z,260
2018-07-07T13:48:46.112Z,235
2018-07-07T13:49:46.108Z,220
2018-07-07T13:50:46.114Z,215
2018-07-07T13:51:46.115Z,220
2018-07-07T13:52:45.885Z,210
2018-07-07T13:53:46.157Z,210
2018-07-07T13:54:45.624Z,215
2018-07-07T13:55:46.176Z,225
2018-07-07T13:56:46.175Z,240
2018-07-07T13:57:46.149Z,220
2018-07-07T13:58:46.179Z,225
2018-07-07T13:59:45.913Z,230
2018-07-07T14:00:45.956Z,235
2018-07-07T14:01:45.653Z,240
2018-07-07T14:02:46.416Z,245
2018-07-07T14:03:45.676Z,245
2018-07-07T14:04:46.195Z,285
2018-07-07T14:05:46.816Z,290
2018-07-07T14:06:46.456Z,290
2018-07-07T14:07:45.695Z,290
2018-07-07T14:08:45.980Z,295
2018-07-07T14:09:45.529Z,290
2018-07-07T14:10:46.732Z,290
2018-07-07T14:11:46.473Z,290
2018-07-07T14:12:46.222Z,285
2018-07-07T14:13:45.994Z,280
2018-07-07T14:14:45.973Z,270
2018-07-07T14:15:46.266Z,290
2018-07-07T14:16:46.009Z,275
2018-07-07T14:17:46.606Z,285
2018-07-07T14:18:46.015Z,270
2018-07-07T14:19:46.280Z,270
2018-07-07T14:20:46.349Z,270
2018-07-07T14:21:46.276Z,270
2018-07-07T14:22:46.023Z,275
2018-07-07T14:23:46.343Z,275
2018-07-07T14:24:46.029Z,280
2018-07-07T14:25:46.096Z,295
2018-07-07T14:26:46.580Z,315
2018-07-07T14:27:46.050Z,315
2018-07-07T14:28:46.081Z,305
2018-07-07T14:29:46.104Z,300
2018-07-07T14:30:46.345Z,295
2018-07-07T14:31:46.663Z,295
2018-07-07T14:32:46.323Z,290
2018-07-07T14:33:46.362Z,285
2018-07-07T14:34:46.581Z,285
2018-07-07T14:35:46.653Z,280
2018-07-07T14:36:46.346Z,275
2018-07-07T14:37:46.434Z,265
2018-07-07T14:38:46.393Z,270
2018-07-07T14:39:46.375Z,275
2018-07-07T14:40:46.431Z,280
2018-07-07T14:41:46.384Z,280
2018-07-07T14:42:45.949Z,280